sensor_id;sensor_type;location;lat;lon;timestamp;pressure;altitude;pressure_sealevel;temperature;humidity
44974;BME280;60981;50.720;11.342;2023-07-31T00:00:04;99718.59;;;18.92;47.40
44974;BME280;60981;50.720;11.342;2023-07-31T00:01:09;99618.34;;;18.79;47.42
44974;BME280;60981;50.720;11.342;2023-07-31T00:02:14;99702.41;;;18.87;47.58
44974;BME280;60981;50.720;11.342;2023-07-31T00:03:16;99718.72;;;19.12;47.77
44974;BME280;60981;50.720;11.342;2023-07-31T00:04:19;99690.78;;;18.81;47.53
44974;BME280;60981;50.720;11.342;2023-07-31T00:05:21;99681.44;;;18.94;47.38
44974;BME280;60981;50.720;11.342;2023-07-31T00:06:24;99665.81;;;18.96;47.26
44974;BME280;60981;50.720;11.342;2023-07-31T00:07:28;99717.88;;;19.06;47.38
44974;BME280;60981;50.720;11.342;2023-07-31T00:08:31;99817.59;;;19.11;47.08
44974;BME280;60981;50.720;11.342;2023-07-31T00:09:35;99714.13;;;19.07;46.88
44974;BME280;60981;50.720;11.342;2023-07-31T00:10:39;99700.75;;;19.28;46.97
44974;BME280;60981;50.720;11.342;2023-07-31T00:11:44;99887.59;;;19.38;46.53
44974;BME280;60981;50.720;11.342;2023-07-31T00:12:47;99883.13;;;19.17;46.80
44974;BME280;60981;50.720;11.342;2023-07-31T00:13:50;99710.97;;;19.26;46.70
44974;BME280;60981;50.720;11.342;2023-07-31T00:14:53;99674.06;;;19.26;46.96
44974;BME280;60981;50.720;11.342;2023-07-31T00:15:55;99684.78;;;19.16;46.95
44974;BME280;60981;50.720;11.342;2023-07-31T00:16:59;99652.66;;;18.99;46.93
44974;BME280;60981;50.720;11.342;2023-07-31T00:18:02;99749.59;;;18.94;47.01
44974;BME280;60981;50.720;11.342;2023-07-31T00:19:05;99733.25;;;19.11;46.87
44974;BME280;60981;50.720;11.342;2023-07-31T00:20:09;99726.75;;;19.02;47.15
44974;BME280;60981;50.720;11.342;2023-07-31T00:21:12;99728.09;;;19.04;47.02
44974;BME280;60981;50.720;11.342;2023-07-31T00:22:14;99698.84;;;19.23;47.00
44974;BME280;60981;50.720;11.342;2023-07-31T00:23:21;99678.81;;;19.09;47.10
44974;BME280;60981;50.720;11.342;2023-07-31T00:24:24;99759.72;;;19.19;47.11
44974;BME280;60981;50.720;11.342;2023-07-31T00:25:26;99844.63;;;19.22;46.80
44974;BME280;60981;50.720;11.342;2023-07-31T00:26:31;99811.84;;;19.35;46.90
44974;BME280;60981;50.720;11.342;2023-07-31T00:27:34;99733.28;;;19.16;46.72
44974;BME280;60981;50.720;11.342;2023-07-31T00:28:39;99783.75;;;19.26;46.95
44974;BME280;60981;50.720;11.342;2023-07-31T00:29:45;99775.16;;;19.34;47.18
44974;BME280;60981;50.720;11.342;2023-07-31T00:30:48;99698.03;;;19.23;47.15
44974;BME280;60981;50.720;11.342;2023-07-31T00:31:50;99691.00;;;19.17;47.23
44974;BME280;60981;50.720;11.342;2023-07-31T00:32:54;99798.78;;;19.17;47.22
44974;BME280;60981;50.720;11.342;2023-07-31T00:33:57;99818.28;;;19.34;47.43
44974;BME280;60981;50.720;11.342;2023-07-31T00:35:00;99805.75;;;19.12;47.50
44974;BME280;60981;50.720;11.342;2023-07-31T00:36:02;99824.78;;;19.38;47.37
44974;BME280;60981;50.720;11.342;2023-07-31T00:37:05;99704.00;;;19.30;47.65
44974;BME280;60981;50.720;11.342;2023-07-31T00:38:08;99848.97;;;19.28;47.33
44974;BME280;60981;50.720;11.342;2023-07-31T00:39:11;99768.69;;;19.30;47.88
44974;BME280;60981;50.720;11.342;2023-07-31T00:40:14;99772.97;;;19.26;48.13
44974;BME280;60981;50.720;11.342;2023-07-31T00:41:19;99864.94;;;19.34;47.74
44974;BME280;60981;50.720;11.342;2023-07-31T00:42:27;99785.06;;;19.23;48.25
44974;BME280;60981;50.720;11.342;2023-07-31T00:43:30;99762.75;;;19.33;48.45
44974;BME280;60981;50.720;11.342;2023-07-31T00:44:32;99736.34;;;19.35;48.81
44974;BME280;60981;50.720;11.342;2023-07-31T00:45:38;99680.59;;;19.40;48.84
44974;BME280;60981;50.720;11.342;2023-07-31T00:46:44;99713.69;;;19.26;49.12
44974;BME280;60981;50.720;11.342;2023-07-31T00:47:46;99757.19;;;19.50;49.29
44974;BME280;60981;50.720;11.342;2023-07-31T00:48:48;99726.06;;;19.27;49.61
44974;BME280;60981;50.720;11.342;2023-07-31T00:49:54;99728.78;;;19.27;49.43
44974;BME280;60981;50.720;11.342;2023-07-31T00:50:58;99694.50;;;19.17;49.26
44974;BME280;60981;50.720;11.342;2023-07-31T00:52:03;99719.59;;;19.23;49.61
44974;BME280;60981;50.720;11.342;2023-07-31T00:53:08;99725.53;;;19.25;49.94
44974;BME280;60981;50.720;11.342;2023-07-31T00:54:11;99802.31;;;19.22;50.19
44974;BME280;60981;50.720;11.342;2023-07-31T00:55:14;99781.34;;;19.29;50.01
44974;BME280;60981;50.720;11.342;2023-07-31T00:56:17;99780.09;;;19.05;50.44
44974;BME280;60981;50.720;11.342;2023-07-31T00:57:20;99740.72;;;18.99;50.28
44974;BME280;60981;50.720;11.342;2023-07-31T00:58:24;99738.94;;;19.14;50.57
44974;BME280;60981;50.720;11.342;2023-07-31T00:59:30;99759.34;;;19.05;51.25
44974;BME280;60981;50.720;11.342;2023-07-31T01:00:33;99742.91;;;19.02;50.70
44974;BME280;60981;50.720;11.342;2023-07-31T01:01:36;99729.81;;;19.21;51.53
44974;BME280;60981;50.720;11.342;2023-07-31T01:02:39;99702.50;;;19.02;51.60
44974;BME280;60981;50.720;11.342;2023-07-31T01:03:42;99765.59;;;19.11;51.17
44974;BME280;60981;50.720;11.342;2023-07-31T01:04:46;99749.31;;;18.64;50.79
44974;BME280;60981;50.720;11.342;2023-07-31T01:09:11;99708.56;;;18.82;52.81
44974;BME280;60981;50.720;11.342;2023-07-31T01:10:28;99739.22;;;18.76;53.04
44974;BME280;60981;50.720;11.342;2023-07-31T01:11:38;99765.38;;;18.80;52.23
44974;BME280;60981;50.720;11.342;2023-07-31T01:12:48;99734.38;;;18.78;53.04
44974;BME280;60981;50.720;11.342;2023-07-31T01:13:51;99772.41;;;18.60;52.97
44974;BME280;60981;50.720;11.342;2023-07-31T01:15:05;99660.41;;;18.59;53.08
44974;BME280;60981;50.720;11.342;2023-07-31T01:16:09;99670.19;;;18.65;52.90
44974;BME280;60981;50.720;11.342;2023-07-31T01:17:12;99678.00;;;18.66;53.07
44974;BME280;60981;50.720;11.342;2023-07-31T01:18:16;99627.13;;;18.70;53.31
44974;BME280;60981;50.720;11.342;2023-07-31T01:19:23;99696.25;;;18.91;53.23
44974;BME280;60981;50.720;11.342;2023-07-31T01:20:30;99742.56;;;18.61;52.99
44974;BME280;60981;50.720;11.342;2023-07-31T01:26:04;99697.28;;;18.85;52.32
44974;BME280;60981;50.720;11.342;2023-07-31T01:27:17;99730.00;;;18.72;52.88
44974;BME280;60981;50.720;11.342;2023-07-31T01:28:46;99730.38;;;18.80;52.87
44974;BME280;60981;50.720;11.342;2023-07-31T01:30:19;99729.63;;;18.90;52.70
44974;BME280;60981;50.720;11.342;2023-07-31T01:31:26;99778.25;;;18.73;52.54
44974;BME280;60981;50.720;11.342;2023-07-31T01:32:34;99768.59;;;18.77;52.34
44974;BME280;60981;50.720;11.342;2023-07-31T01:33:37;99739.22;;;18.76;52.62
44974;BME280;60981;50.720;11.342;2023-07-31T01:34:41;99781.31;;;18.87;52.84
44974;BME280;60981;50.720;11.342;2023-07-31T01:35:50;99751.81;;;18.70;53.31
44974;BME280;60981;50.720;11.342;2023-07-31T01:36:55;99784.28;;;18.86;52.41
44974;BME280;60981;50.720;11.342;2023-07-31T01:38:01;99772.13;;;18.83;52.51
44974;BME280;60981;50.720;11.342;2023-07-31T01:39:04;99748.75;;;18.89;53.04
44974;BME280;60981;50.720;11.342;2023-07-31T01:40:08;99754.88;;;18.79;52.08
44974;BME280;60981;50.720;11.342;2023-07-31T01:41:13;99813.84;;;18.80;52.04
44974;BME280;60981;50.720;11.342;2023-07-31T01:42:16;99756.75;;;18.78;51.90
44974;BME280;60981;50.720;11.342;2023-07-31T01:43:19;99767.00;;;18.81;51.97
44974;BME280;60981;50.720;11.342;2023-07-31T01:44:23;99760.66;;;18.98;51.64
44974;BME280;60981;50.720;11.342;2023-07-31T01:45:25;99768.44;;;18.94;52.08
44974;BME280;60981;50.720;11.342;2023-07-31T01:46:29;99795.63;;;18.93;51.41
44974;BME280;60981;50.720;11.342;2023-07-31T01:47:32;99809.22;;;18.76;51.88
44974;BME280;60981;50.720;11.342;2023-07-31T01:48:36;99734.97;;;18.58;51.97
44974;BME280;60981;50.720;11.342;2023-07-31T01:49:42;99751.88;;;18.75;51.96
44974;BME280;60981;50.720;11.342;2023-07-31T01:50:46;99763.47;;;18.54;51.97
44974;BME280;60981;50.720;11.342;2023-07-31T01:51:49;99761.09;;;18.58;51.83
44974;BME280;60981;50.720;11.342;2023-07-31T01:52:55;99640.69;;;18.80;52.08
44974;BME280;60981;50.720;11.342;2023-07-31T01:53:58;99584.22;;;18.58;52.16
44974;BME280;60981;50.720;11.342;2023-07-31T01:55:03;99618.34;;;18.47;52.41
44974;BME280;60981;50.720;11.342;2023-07-31T01:56:06;99594.19;;;18.58;52.50
44974;BME280;60981;50.720;11.342;2023-07-31T01:57:12;99585.56;;;18.56;52.20
44974;BME280;60981;50.720;11.342;2023-07-31T01:58:15;99600.38;;;18.58;52.71
44974;BME280;60981;50.720;11.342;2023-07-31T01:59:18;99592.38;;;18.63;52.65
44974;BME280;60981;50.720;11.342;2023-07-31T02:00:22;99581.38;;;18.70;52.12
44974;BME280;60981;50.720;11.342;2023-07-31T02:01:24;99621.28;;;18.78;52.61
44974;BME280;60981;50.720;11.342;2023-07-31T02:02:30;99547.97;;;18.66;52.31
44974;BME280;60981;50.720;11.342;2023-07-31T02:03:33;99568.22;;;18.73;52.16
44974;BME280;60981;50.720;11.342;2023-07-31T02:04:36;99558.50;;;18.72;51.87
44974;BME280;60981;50.720;11.342;2023-07-31T02:05:46;99566.41;;;18.89;52.00
44974;BME280;60981;50.720;11.342;2023-07-31T02:06:49;99588.97;;;18.78;52.00
44974;BME280;60981;50.720;11.342;2023-07-31T02:07:53;99578.47;;;18.76;51.98
44974;BME280;60981;50.720;11.342;2023-07-31T02:08:56;99575.44;;;18.68;52.57
44974;BME280;60981;50.720;11.342;2023-07-31T02:10:00;99583.09;;;18.86;52.65
44974;BME280;60981;50.720;11.342;2023-07-31T02:11:03;99580.41;;;18.91;52.79
44974;BME280;60981;50.720;11.342;2023-07-31T02:12:06;99592.28;;;18.90;52.45
44974;BME280;60981;50.720;11.342;2023-07-31T02:13:13;99618.16;;;18.96;53.28
44974;BME280;60981;50.720;11.342;2023-07-31T02:14:16;99597.13;;;18.93;54.22
44974;BME280;60981;50.720;11.342;2023-07-31T02:15:19;99582.53;;;18.84;52.48
44974;BME280;60981;50.720;11.342;2023-07-31T02:16:22;99590.16;;;18.97;53.16
44974;BME280;60981;50.720;11.342;2023-07-31T02:17:26;99610.91;;;19.02;53.36
44974;BME280;60981;50.720;11.342;2023-07-31T02:18:31;99626.06;;;18.71;53.79
44974;BME280;60981;50.720;11.342;2023-07-31T02:19:35;99635.22;;;18.70;53.58
44974;BME280;60981;50.720;11.342;2023-07-31T02:20:37;99574.91;;;18.71;54.91
44974;BME280;60981;50.720;11.342;2023-07-31T02:21:40;99604.91;;;18.85;53.40
44974;BME280;60981;50.720;11.342;2023-07-31T02:22:48;99582.50;;;18.74;54.07
44974;BME280;60981;50.720;11.342;2023-07-31T02:23:51;99573.56;;;18.68;54.48
44974;BME280;60981;50.720;11.342;2023-07-31T02:24:54;99593.31;;;18.84;54.55
44974;BME280;60981;50.720;11.342;2023-07-31T02:26:01;99611.59;;;18.77;54.08
44974;BME280;60981;50.720;11.342;2023-07-31T02:27:05;99643.97;;;18.87;54.16
44974;BME280;60981;50.720;11.342;2023-07-31T02:28:08;99623.16;;;18.77;54.19
44974;BME280;60981;50.720;11.342;2023-07-31T02:29:13;99615.47;;;19.01;53.77
44974;BME280;60981;50.720;11.342;2023-07-31T02:30:15;99568.00;;;18.85;54.50
44974;BME280;60981;50.720;11.342;2023-07-31T02:31:18;99576.31;;;18.78;54.14
44974;BME280;60981;50.720;11.342;2023-07-31T02:32:25;99600.69;;;19.04;54.41
44974;BME280;60981;50.720;11.342;2023-07-31T02:33:31;99549.88;;;18.70;53.66
44974;BME280;60981;50.720;11.342;2023-07-31T02:34:34;99557.44;;;18.73;54.71
44974;BME280;60981;50.720;11.342;2023-07-31T02:35:36;99581.22;;;18.87;54.24
44974;BME280;60981;50.720;11.342;2023-07-31T02:36:39;99532.41;;;18.73;54.46
44974;BME280;60981;50.720;11.342;2023-07-31T02:37:45;99578.28;;;18.93;54.96
44974;BME280;60981;50.720;11.342;2023-07-31T02:38:49;99543.50;;;18.87;55.03
44974;BME280;60981;50.720;11.342;2023-07-31T02:39:52;99546.47;;;18.85;55.40
44974;BME280;60981;50.720;11.342;2023-07-31T02:40:55;99504.91;;;18.71;55.42
44974;BME280;60981;50.720;11.342;2023-07-31T02:41:58;99528.00;;;18.62;56.71
44974;BME280;60981;50.720;11.342;2023-07-31T02:43:03;99568.44;;;18.67;55.77
44974;BME280;60981;50.720;11.342;2023-07-31T02:44:05;99530.38;;;18.58;55.95
44974;BME280;60981;50.720;11.342;2023-07-31T02:45:10;99538.84;;;18.72;56.96
44974;BME280;60981;50.720;11.342;2023-07-31T02:46:15;99547.66;;;18.62;56.46
44974;BME280;60981;50.720;11.342;2023-07-31T02:47:18;99554.97;;;18.67;56.56
44974;BME280;60981;50.720;11.342;2023-07-31T02:48:20;99548.69;;;18.56;56.53
44974;BME280;60981;50.720;11.342;2023-07-31T02:49:22;99554.81;;;18.46;56.63
44974;BME280;60981;50.720;11.342;2023-07-31T02:50:25;99571.72;;;18.37;57.25
44974;BME280;60981;50.720;11.342;2023-07-31T02:51:33;99597.94;;;18.57;56.89
44974;BME280;60981;50.720;11.342;2023-07-31T02:52:35;99606.53;;;18.54;57.09
44974;BME280;60981;50.720;11.342;2023-07-31T02:53:38;99558.75;;;18.29;57.92
44974;BME280;60981;50.720;11.342;2023-07-31T02:54:45;99582.88;;;18.56;57.52
44974;BME280;60981;50.720;11.342;2023-07-31T02:55:49;99565.06;;;18.49;57.86
44974;BME280;60981;50.720;11.342;2023-07-31T02:56:53;99557.06;;;18.60;57.59
44974;BME280;60981;50.720;11.342;2023-07-31T02:57:56;99578.13;;;18.31;57.90
44974;BME280;60981;50.720;11.342;2023-07-31T02:58:59;99572.56;;;18.42;57.64
44974;BME280;60981;50.720;11.342;2023-07-31T03:00:04;99542.06;;;18.27;58.05
44974;BME280;60981;50.720;11.342;2023-07-31T03:01:09;99546.13;;;18.34;58.17
44974;BME280;60981;50.720;11.342;2023-07-31T03:02:12;99547.22;;;18.33;57.91
44974;BME280;60981;50.720;11.342;2023-07-31T03:03:16;99565.28;;;18.38;58.20
44974;BME280;60981;50.720;11.342;2023-07-31T03:04:19;99550.78;;;18.44;57.60
44974;BME280;60981;50.720;11.342;2023-07-31T03:05:24;99556.38;;;18.37;57.78
44974;BME280;60981;50.720;11.342;2023-07-31T03:06:27;99539.66;;;18.30;58.15
44974;BME280;60981;50.720;11.342;2023-07-31T03:07:30;99546.13;;;18.34;58.52
44974;BME280;60981;50.720;11.342;2023-07-31T03:08:34;99571.50;;;18.43;57.86
44974;BME280;60981;50.720;11.342;2023-07-31T03:09:39;99558.88;;;18.49;58.49
44974;BME280;60981;50.720;11.342;2023-07-31T03:10:41;99552.69;;;18.48;58.74
44974;BME280;60981;50.720;11.342;2023-07-31T03:11:46;99535.31;;;18.24;58.42
44974;BME280;60981;50.720;11.342;2023-07-31T03:12:48;99563.22;;;18.13;59.14
44974;BME280;60981;50.720;11.342;2023-07-31T03:13:54;99569.00;;;18.32;58.86
44974;BME280;60981;50.720;11.342;2023-07-31T03:14:58;99555.19;;;18.18;59.02
44974;BME280;60981;50.720;11.342;2023-07-31T03:16:01;99530.44;;;18.21;59.43
44974;BME280;60981;50.720;11.342;2023-07-31T03:17:06;99537.13;;;18.13;59.55
44974;BME280;60981;50.720;11.342;2023-07-31T03:18:09;99531.41;;;18.05;60.28
44974;BME280;60981;50.720;11.342;2023-07-31T03:19:11;99536.88;;;18.15;61.19
44974;BME280;60981;50.720;11.342;2023-07-31T03:20:15;99520.50;;;18.22;60.01
44974;BME280;60981;50.720;11.342;2023-07-31T03:21:23;99532.28;;;18.15;61.10
44974;BME280;60981;50.720;11.342;2023-07-31T03:22:26;99546.59;;;18.21;59.38
44974;BME280;60981;50.720;11.342;2023-07-31T03:23:29;99501.81;;;18.00;59.37
44974;BME280;60981;50.720;11.342;2023-07-31T03:24:31;99505.53;;;17.94;59.39
44974;BME280;60981;50.720;11.342;2023-07-31T03:25:34;99536.88;;;18.15;59.80
44974;BME280;60981;50.720;11.342;2023-07-31T03:26:38;99552.22;;;18.19;59.23
44974;BME280;60981;50.720;11.342;2023-07-31T03:27:42;99551.47;;;18.24;59.39
44974;BME280;60981;50.720;11.342;2023-07-31T03:28:45;99532.53;;;18.09;60.27
44974;BME280;60981;50.720;11.342;2023-07-31T03:29:47;99528.44;;;18.01;59.54
44974;BME280;60981;50.720;11.342;2023-07-31T03:30:52;99528.28;;;18.18;60.38
44974;BME280;60981;50.720;11.342;2023-07-31T03:31:56;99553.25;;;18.13;60.43
44974;BME280;60981;50.720;11.342;2023-07-31T03:32:58;99497.16;;;17.90;60.16
44974;BME280;60981;50.720;11.342;2023-07-31T03:34:04;99537.28;;;17.97;60.03
44974;BME280;60981;50.720;11.342;2023-07-31T03:35:06;99522.34;;;17.79;60.50
44974;BME280;60981;50.720;11.342;2023-07-31T03:36:10;99515.06;;;17.74;60.47
44974;BME280;60981;50.720;11.342;2023-07-31T03:37:14;99527.97;;;17.77;60.96
44974;BME280;60981;50.720;11.342;2023-07-31T03:38:17;99508.44;;;17.87;61.87
44974;BME280;60981;50.720;11.342;2023-07-31T03:39:20;99488.53;;;17.88;60.16
44974;BME280;60981;50.720;11.342;2023-07-31T03:40:22;99521.03;;;17.81;61.05
44974;BME280;60981;50.720;11.342;2023-07-31T03:41:26;99500.88;;;17.84;61.10
44974;BME280;60981;50.720;11.342;2023-07-31T03:42:30;99519.69;;;17.84;61.02
44974;BME280;60981;50.720;11.342;2023-07-31T03:43:33;99518.84;;;17.78;59.57
44974;BME280;60981;50.720;11.342;2023-07-31T03:44:36;99506.06;;;17.96;60.13
44974;BME280;60981;50.720;11.342;2023-07-31T03:45:40;99491.25;;;17.93;60.76
44974;BME280;60981;50.720;11.342;2023-07-31T03:46:43;99499.06;;;17.95;60.22
44974;BME280;60981;50.720;11.342;2023-07-31T03:47:46;99507.25;;;18.10;60.13
44974;BME280;60981;50.720;11.342;2023-07-31T03:48:50;99495.28;;;17.91;60.33
44974;BME280;60981;50.720;11.342;2023-07-31T03:49:53;99484.44;;;17.80;60.60
44974;BME280;60981;50.720;11.342;2023-07-31T03:50:58;99479.13;;;17.85;60.55
44974;BME280;60981;50.720;11.342;2023-07-31T03:52:04;99501.25;;;17.98;60.67
44974;BME280;60981;50.720;11.342;2023-07-31T03:53:06;99480.72;;;17.86;61.33
44974;BME280;60981;50.720;11.342;2023-07-31T03:54:10;99501.03;;;18.04;60.92
44974;BME280;60981;50.720;11.342;2023-07-31T03:55:13;99483.84;;;18.10;60.23
44974;BME280;60981;50.720;11.342;2023-07-31T03:56:15;99513.69;;;18.09;60.77
44974;BME280;60981;50.720;11.342;2023-07-31T03:57:20;99509.38;;;18.08;60.70
44974;BME280;60981;50.720;11.342;2023-07-31T03:58:23;99515.34;;;18.15;60.05
44974;BME280;60981;50.720;11.342;2023-07-31T03:59:26;99545.56;;;18.27;60.91
44974;BME280;60981;50.720;11.342;2023-07-31T04:00:29;99501.00;;;17.99;60.97
44974;BME280;60981;50.720;11.342;2023-07-31T04:01:35;99522.75;;;17.98;60.49
44974;BME280;60981;50.720;11.342;2023-07-31T04:02:40;99529.22;;;17.97;62.26
44974;BME280;60981;50.720;11.342;2023-07-31T04:03:45;99510.75;;;17.73;62.73
44974;BME280;60981;50.720;11.342;2023-07-31T04:04:48;99517.31;;;17.88;62.89
44974;BME280;60981;50.720;11.342;2023-07-31T04:05:54;99509.53;;;17.91;63.49
44974;BME280;60981;50.720;11.342;2023-07-31T04:06:57;99520.03;;;17.93;61.92
44974;BME280;60981;50.720;11.342;2023-07-31T04:08:03;99524.81;;;17.85;61.47
44974;BME280;60981;50.720;11.342;2023-07-31T04:09:04;99540.22;;;17.95;63.10
44974;BME280;60981;50.720;11.342;2023-07-31T04:10:08;99508.88;;;17.74;61.62
44974;BME280;60981;50.720;11.342;2023-07-31T04:11:15;99507.00;;;17.74;62.78
44974;BME280;60981;50.720;11.342;2023-07-31T04:12:18;99496.78;;;17.76;61.81
44974;BME280;60981;50.720;11.342;2023-07-31T04:13:22;99505.44;;;17.83;63.51
44974;BME280;60981;50.720;11.342;2023-07-31T04:14:24;99506.22;;;17.79;62.13
44974;BME280;60981;50.720;11.342;2023-07-31T04:15:29;99467.47;;;17.48;62.04
44974;BME280;60981;50.720;11.342;2023-07-31T04:16:35;99509.13;;;17.72;62.43
44974;BME280;60981;50.720;11.342;2023-07-31T04:17:37;99510.03;;;17.61;62.12
44974;BME280;60981;50.720;11.342;2023-07-31T04:18:40;99480.09;;;17.47;62.19
44974;BME280;60981;50.720;11.342;2023-07-31T04:19:44;99481.47;;;17.50;62.94
44974;BME280;60981;50.720;11.342;2023-07-31T04:20:48;99526.00;;;17.68;62.72
44974;BME280;60981;50.720;11.342;2023-07-31T04:21:51;99496.91;;;17.65;62.78
44974;BME280;60981;50.720;11.342;2023-07-31T04:22:54;99479.47;;;17.67;62.47
44974;BME280;60981;50.720;11.342;2023-07-31T04:23:56;99488.25;;;17.58;62.48
44974;BME280;60981;50.720;11.342;2023-07-31T04:25:02;99515.25;;;17.68;64.51
44974;BME280;60981;50.720;11.342;2023-07-31T04:26:05;99495.59;;;17.67;62.29
44974;BME280;60981;50.720;11.342;2023-07-31T04:27:09;99483.38;;;17.81;62.66
44974;BME280;60981;50.720;11.342;2023-07-31T04:28:15;99507.00;;;17.74;62.97
44974;BME280;60981;50.720;11.342;2023-07-31T04:29:17;99540.25;;;17.68;61.59
44974;BME280;60981;50.720;11.342;2023-07-31T04:30:20;99518.53;;;17.48;61.47
44974;BME280;60981;50.720;11.342;2023-07-31T04:31:26;99511.09;;;17.60;62.18
44974;BME280;60981;50.720;11.342;2023-07-31T04:32:29;99519.56;;;17.69;62.78
44974;BME280;60981;50.720;11.342;2023-07-31T04:33:32;99512.41;;;17.79;62.25
44974;BME280;60981;50.720;11.342;2023-07-31T04:34:36;99541.53;;;17.93;61.27
44974;BME280;60981;50.720;11.342;2023-07-31T04:35:41;99552.00;;;17.89;61.36
44974;BME280;60981;50.720;11.342;2023-07-31T04:36:45;99513.94;;;17.70;62.39
44974;BME280;60981;50.720;11.342;2023-07-31T04:37:48;99529.84;;;17.50;63.10
44974;BME280;60981;50.720;11.342;2023-07-31T04:38:51;99548.94;;;17.75;62.92
44974;BME280;60981;50.720;11.342;2023-07-31T04:39:54;99560.31;;;17.88;61.39
44974;BME280;60981;50.720;11.342;2023-07-31T04:40:59;99527.72;;;17.79;61.73
44974;BME280;60981;50.720;11.342;2023-07-31T04:42:04;99529.97;;;17.92;61.01
44974;BME280;60981;50.720;11.342;2023-07-31T04:43:07;99519.53;;;17.96;62.52
44974;BME280;60981;50.720;11.342;2023-07-31T04:44:10;99504.97;;;17.92;60.72
44974;BME280;60981;50.720;11.342;2023-07-31T04:45:14;99543.25;;;18.04;61.77
44974;BME280;60981;50.720;11.342;2023-07-31T04:46:17;99491.59;;;18.02;60.92
44974;BME280;60981;50.720;11.342;2023-07-31T04:47:20;99507.78;;;18.12;60.51
44974;BME280;60981;50.720;11.342;2023-07-31T04:48:24;99550.41;;;18.30;60.71
44974;BME280;60981;50.720;11.342;2023-07-31T04:49:27;99502.91;;;18.04;60.49
44974;BME280;60981;50.720;11.342;2023-07-31T04:50:31;99518.78;;;18.05;62.35
44974;BME280;60981;50.720;11.342;2023-07-31T04:51:35;99528.00;;;18.14;60.85
44974;BME280;60981;50.720;11.342;2023-07-31T04:52:38;99510.50;;;18.12;61.26
44974;BME280;60981;50.720;11.342;2023-07-31T04:53:43;99530.19;;;18.23;61.06
44974;BME280;60981;50.720;11.342;2023-07-31T04:54:46;99484.91;;;18.09;60.66
44974;BME280;60981;50.720;11.342;2023-07-31T04:55:48;99495.59;;;17.99;61.62
44974;BME280;60981;50.720;11.342;2023-07-31T04:56:56;99474.91;;;18.00;61.75
44974;BME280;60981;50.720;11.342;2023-07-31T04:58:02;99484.84;;;17.99;61.62
44974;BME280;60981;50.720;11.342;2023-07-31T04:59:05;99507.19;;;18.00;61.87
44974;BME280;60981;50.720;11.342;2023-07-31T05:00:08;99484.03;;;17.99;61.47
44974;BME280;60981;50.720;11.342;2023-07-31T05:01:16;99546.53;;;18.11;61.99
44974;BME280;60981;50.720;11.342;2023-07-31T05:02:19;99536.78;;;18.05;60.71
44974;BME280;60981;50.720;11.342;2023-07-31T05:03:22;99533.84;;;18.06;61.67
44974;BME280;60981;50.720;11.342;2023-07-31T05:04:26;99505.59;;;18.04;61.44
44974;BME280;60981;50.720;11.342;2023-07-31T05:05:32;99523.31;;;18.00;61.17
44974;BME280;60981;50.720;11.342;2023-07-31T05:06:36;99542.97;;;18.05;62.33
44974;BME280;60981;50.720;11.342;2023-07-31T05:07:39;99525.59;;;18.18;61.01
44974;BME280;60981;50.720;11.342;2023-07-31T05:08:45;99565.09;;;18.12;61.37
44974;BME280;60981;50.720;11.342;2023-07-31T05:09:48;99528.22;;;18.08;60.20
44974;BME280;60981;50.720;11.342;2023-07-31T05:10:51;99555.28;;;17.96;60.42
44974;BME280;60981;50.720;11.342;2023-07-31T05:11:53;99490.78;;;18.01;59.78
44974;BME280;60981;50.720;11.342;2023-07-31T05:12:57;99553.00;;;18.15;59.50
44974;BME280;60981;50.720;11.342;2023-07-31T05:14:00;99551.09;;;18.10;60.32
44974;BME280;60981;50.720;11.342;2023-07-31T05:15:04;99505.13;;;18.17;59.52
44974;BME280;60981;50.720;11.342;2023-07-31T05:16:06;99500.78;;;18.11;60.80
44974;BME280;60981;50.720;11.342;2023-07-31T05:17:09;99581.78;;;18.14;58.95
44974;BME280;60981;50.720;11.342;2023-07-31T05:18:13;99506.13;;;18.06;59.21
44974;BME280;60981;50.720;11.342;2023-07-31T05:19:16;99496.47;;;18.10;60.13
44974;BME280;60981;50.720;11.342;2023-07-31T05:20:20;99511.59;;;18.16;60.55
44974;BME280;60981;50.720;11.342;2023-07-31T05:21:26;99506.75;;;18.18;59.66
44974;BME280;60981;50.720;11.342;2023-07-31T05:22:33;99512.81;;;18.40;58.81
44974;BME280;60981;50.720;11.342;2023-07-31T05:23:37;99503.56;;;18.21;58.69
44974;BME280;60981;50.720;11.342;2023-07-31T05:24:40;99493.56;;;18.16;58.21
44974;BME280;60981;50.720;11.342;2023-07-31T05:25:46;99503.00;;;18.19;58.11
44974;BME280;60981;50.720;11.342;2023-07-31T05:26:49;99506.50;;;18.19;58.26
44974;BME280;60981;50.720;11.342;2023-07-31T05:27:54;99500.06;;;18.21;57.70
44974;BME280;60981;50.720;11.342;2023-07-31T05:28:57;99496.59;;;18.30;57.93
44974;BME280;60981;50.720;11.342;2023-07-31T05:30:03;99556.91;;;18.34;57.76
44974;BME280;60981;50.720;11.342;2023-07-31T05:31:06;99577.28;;;18.25;57.65
44974;BME280;60981;50.720;11.342;2023-07-31T05:32:09;99521.56;;;18.21;57.28
44974;BME280;60981;50.720;11.342;2023-07-31T05:33:11;99582.41;;;18.27;57.76
44974;BME280;60981;50.720;11.342;2023-07-31T05:34:17;99620.09;;;18.27;56.93
44974;BME280;60981;50.720;11.342;2023-07-31T05:35:20;99706.56;;;18.40;57.07
44974;BME280;60981;50.720;11.342;2023-07-31T05:36:24;99715.81;;;18.49;56.84
44974;BME280;60981;50.720;11.342;2023-07-31T05:37:29;99654.84;;;18.33;56.91
44974;BME280;60981;50.720;11.342;2023-07-31T05:38:32;99636.97;;;18.54;56.82
44974;BME280;60981;50.720;11.342;2023-07-31T05:39:34;99622.41;;;18.50;56.23
44974;BME280;60981;50.720;11.342;2023-07-31T05:40:38;99554.63;;;18.58;56.00
44974;BME280;60981;50.720;11.342;2023-07-31T05:41:41;99628.84;;;18.49;56.34
44974;BME280;60981;50.720;11.342;2023-07-31T05:42:44;99618.47;;;18.63;56.47